Météo Cheval Rigon

 

Relevés d'aujourd'hui



 

3/12/22
Time         Wind Dir   Wind Spd  Wind Gust   Humidity       Temp   Tot Rain Wind Chill  Dew Point   Barom SL Humidity R Temp Out R Tot Rain R   WindCh R   Dew Pt R SL Barom R Temp Out H Temp Out L  DailyRain   HourRain   24HrRain   RainRate  MonthRain
                          km/hr      km/hr          %         C         mm         C         C         mb       %/hr      C/hr      mm/hr      C/hr      C/hr      mm/hr         C         C         mm         mm         mm      mm/hr         mm
0:00              205          0          0         97        0.1     609.60        0.1       -0.4    1014.50       -0.0       0.00      0.000       0.00       0.00     -0.315        0.1        0.1       0.00       0.00       0.00      0.000       0.60
0:15              205          0          2         97        0.1     609.60        0.1       -0.4    1014.50       -0.0       0.00      0.000       0.00       0.00     -0.248        0.1        0.0       0.00       0.00       0.00      0.000       0.60
0:30              155          2          2         97        0.1     609.60        0.1       -0.4    1014.47       -0.0       0.00      0.000       0.00       0.00     -0.222        0.1        0.0       0.00       0.00       0.00      0.000       0.60
0:45              119          0          2         97        0.3     609.60        0.3       -0.1    1014.37       -0.0       0.20      0.000       0.20       0.20     -0.253        0.3        0.0       0.00       0.00       0.00      0.000       0.60
1:00               96          0          3         96        0.3     609.60        0.3       -0.2    1014.30       -0.9       0.20      0.000       0.20       0.07     -0.252        0.3        0.0       0.00       0.00       0.00      0.000       0.60
1:15               96          0          2         96        0.3     609.60        0.3       -0.3    1014.27       -0.7       0.11      0.000       0.11       0.01     -0.224        0.3        0.0       0.00       0.00       0.00      0.000       0.60
1:30               96          0          2         96        0.2     609.60        0.2       -0.3    1014.13       -0.5       0.04      0.000       0.05      -0.03     -0.290        0.3        0.0       0.00       0.00       0.00      0.000       0.60
1:45               96          0          2         96        0.3     609.60        0.3       -0.3    1014.13       -0.4       0.10      0.000       0.10       0.04     -0.215        0.3        0.0       0.00       0.00       0.00      0.000       0.60
2:00               96          0          2         96        0.2     609.60        0.2       -0.3    1013.99       -0.3       0.03      0.000       0.03      -0.02     -0.291        0.3        0.0       0.00       0.00       0.00      0.000       0.60
2:15               96          0          0         97        0.0     609.60        0.0       -0.4    1013.86        0.7      -0.18      0.000      -0.18      -0.08     -0.350        0.3        0.0       0.00       0.00       0.00      0.000       0.60
2:30               96          0          0         97        0.1     609.60        0.1       -0.4    1013.93        0.5      -0.09      0.000      -0.09      -0.02     -0.226        0.3        0.0       0.00       0.00       0.00      0.000       0.60
2:45               96          0          0         97        0.0     609.60        0.0       -0.4    1013.89        0.4      -0.12      0.000      -0.12      -0.07     -0.189        0.3        0.0       0.00       0.00       0.00      0.000       0.60
3:00               96          0          0         97        0.0     609.60        0.0       -0.4    1013.89        0.3      -0.09      0.000      -0.09      -0.05     -0.149        0.3       -0.1       0.00       0.00       0.00      0.000       0.60
3:15               96          0          0         97        0.0     609.60        0.0       -0.4    1013.93        0.2      -0.08      0.000      -0.08      -0.04     -0.082        0.3       -0.1       0.00       0.00       0.00      0.000       0.60
3:30               96          0          0         97        0.0     609.60        0.0       -0.4    1013.86        0.1      -0.06      0.000      -0.06      -0.05     -0.132        0.3       -0.1       0.00       0.00       0.00      0.000       0.60
3:45               96          0          0         98       -0.1     609.60       -0.1       -0.3    1013.76        0.9      -0.10      0.000      -0.10       0.02     -0.204        0.3       -0.1       0.00       0.00       0.00      0.000       0.60
4:00               96          0          0         97       -0.2     609.60       -0.2       -0.6    1013.76       -0.2      -0.23      0.000      -0.23      -0.26     -0.166        0.3       -0.2       0.00       0.00       0.00      0.000       0.60
4:15               96          0          0         98       -0.2     609.60       -0.2       -0.5    1013.62        0.7      -0.18      0.000      -0.18      -0.08     -0.252        0.3       -0.3       0.00       0.00       0.00      0.000       0.60
4:30               96          0          2         98       -0.1     609.60       -0.1       -0.4    1013.66        0.5      -0.04      0.000      -0.04       0.04     -0.166        0.3       -0.3       0.00       0.00       0.00      0.000       0.60
4:45               96          0          0         98       -0.2     609.60       -0.2       -0.4    1013.66        0.4      -0.08      0.000      -0.08      -0.03     -0.124        0.3       -0.3       0.00       0.00       0.00      0.000       0.60
5:00              109          0          2         98       -0.2     609.60       -0.2       -0.5    1013.52        0.3      -0.11      0.000      -0.11      -0.06     -0.219        0.3       -0.3       0.00       0.00       0.00      0.000       0.60
5:15              108          0          2         98        0.0     609.60        0.0       -0.3    1013.62        0.2       0.11      0.000       0.11       0.15     -0.083        0.3       -0.3       0.00       0.00       0.00      0.000       0.60
5:30              117          0          2         98        0.1     609.60        0.1       -0.2    1013.49        0.2       0.13      0.000       0.13       0.16     -0.188        0.3       -0.3       0.00       0.00       0.00      0.000       0.60
5:45              117          0          0         98        0.1     609.60        0.1       -0.2    1013.39        0.2       0.11      0.000       0.11       0.13     -0.235        0.3       -0.3       0.00       0.00       0.00      0.000       0.60
6:00               92          0          2         98        0.3     609.60        0.3        0.1    1013.18        0.1       0.35      0.000       0.35       0.37     -0.348        0.3       -0.3       0.00       0.00       0.00      0.000       0.60
6:15               90          0          2         98       -0.2     609.60       -0.2       -0.4    1013.25        0.1      -0.15      0.000      -0.15      -0.14     -0.210        0.3       -0.3       0.00       0.00       0.00      0.000       0.60
6:30               93          2          3         98        0.4     609.60        0.4        0.2    1013.08        0.1       0.44      0.000       0.45       0.45     -0.308        0.4       -0.3       0.00       0.00       0.00      0.000       0.60
6:45               89          3          8         98        0.8     609.60        0.3        0.5    1012.95        0.1       0.63      0.000       0.26       0.63     -0.354        0.8       -0.3       0.00       0.00       0.00      0.000       0.60
7:00               83          3          5         96        0.9     609.60        0.4        0.3    1012.95       -1.7       0.58      0.000       0.24       0.34     -0.277        0.9       -0.3       0.00       0.00       0.00      0.000       0.60
7:15              116          3          8         95        1.1     609.60        0.6        0.3    1013.01       -2.2       0.60      0.000       0.37       0.28     -0.161        1.1       -0.3       0.00       0.00       0.00      0.000       0.60
7:30               98          8          8         94        1.1     609.60       -1.4        0.3    1012.98       -2.6       0.52      0.000      -1.72       0.14     -0.159        1.2       -0.3       0.00       0.00       0.00      0.000       0.60
7:45              125          3         10         94        1.1     609.60        0.6        0.3    1013.01       -2.0       0.40      0.000       0.36       0.11     -0.084        1.2       -0.3       0.00       0.00       0.00      0.000       0.60
8:00               96          3          8         94        1.2     609.60        0.8        0.4    1013.01       -1.6       0.40      0.000       0.41       0.18     -0.074        1.2       -0.3       0.00       0.00       0.00      0.000       0.60
8:15               94          8         11         94        1.3     609.60       -1.2        0.5    1013.08       -1.2       0.42      0.000      -1.49       0.24     -0.001        1.4       -0.3       0.00       0.00       0.00      0.000       0.60
8:30               91          8         13         94        1.4     609.60       -1.1        0.5    1013.05       -1.0       0.37      0.000      -1.31       0.23     -0.021        1.4       -0.3       0.00       0.00       0.00      0.000       0.60
8:45               97          2          8         94        1.4     609.80        1.4        0.6    1013.05       -0.7       0.34      0.163       1.03       0.23     -0.017        1.4       -0.3       0.20       0.20       0.20      0.000       0.80
9:00               89          3          8         93        1.7     609.80        1.3        0.7    1013.11       -1.5       0.50      0.127       0.74       0.28      0.053        1.7       -0.3       0.20       0.20       0.20      0.000       0.80
9:15              114          5         11         93        1.9     610.20        0.7        0.9    1013.11       -1.2       0.58      0.460       0.16       0.41      0.055        1.9       -0.3       0.60       0.60       0.60      1.000       1.20
9:30               92          8         14         91        2.3     610.40        0.0        1.0    1013.08       -2.6       0.81      0.542      -0.51       0.40      0.021        2.3       -0.3       0.80       0.80       0.80      1.200       1.40
9:45               88          3         10         90        2.5     610.80        2.2        1.0    1013.08       -2.8       0.75      0.786       1.38       0.32      0.010        2.6       -0.3       1.20       1.20       1.20      1.400       1.80
10:00              49          0          3         94        1.7     611.00        1.7        0.8    1013.25        1.4      -0.16      0.800       0.58       0.06      0.142        2.6       -0.3       1.40       1.20       1.40      0.800       2.00
10:15             101          0          8         92        2.2     611.00        2.2        1.1    1013.18       -0.7       0.35      0.626       0.98       0.25      0.049        2.6       -0.3       1.40       1.20       1.40      0.000       2.00
10:30             100          2          2         96        2.2     611.20        2.2        1.6    1013.18        3.0       0.27      0.644       0.76       0.72      0.027        2.6       -0.3       1.60       1.00       1.60      0.000       2.20
10:45             100          0          2         95        2.4     611.40        2.4        1.7    1013.25        1.5       0.41      0.667       0.79       0.62      0.091        2.6       -0.3       1.80       1.00       1.80      0.000       2.40
11:00             100          0          2         96        2.6     611.60        2.6        2.0    1013.22        2.1       0.51      0.702       0.81       0.83      0.048        2.6       -0.3       2.00       0.80       2.00      0.000       2.60
11:15             113          0          2         94        2.8     611.60        2.8        2.0    1013.25       -0.0       0.59      0.548       0.83       0.59      0.064        2.9       -0.3       2.00       0.60       2.00      0.000       2.60
11:30             261          2          6         95        1.8     611.80        1.8        1.1    1013.28        0.8      -0.48      0.582      -0.27      -0.35      0.076        2.9       -0.3       2.20       0.80       2.20      0.000       2.80
11:45             263          3          3         96        1.9     612.00        1.5        1.3    1013.35        1.5      -0.28      0.635      -0.49      -0.06      0.117        2.9       -0.3       2.40       0.80       2.40      0.000       3.00
12:00             223          0          3         97        1.5     612.00        1.5        1.1    1013.42        2.1      -0.54      0.493      -0.40      -0.23      0.143        2.9       -0.3       2.40       0.60       2.40      0.000       3.00
12:15             223          0          0         97        1.7     612.00        1.7        1.3    1013.45        1.6      -0.23      0.384      -0.12       0.01      0.138        2.9       -0.3       2.40       0.40       2.40      0.000       3.00
12:30             223          0          2         97        1.8     612.20        1.8        1.4    1013.35        1.3      -0.07      0.458       0.01       0.12      0.017        2.9       -0.3       2.60       0.60       2.60      0.000       3.20
12:45             223          0          0         97        1.9     612.20        1.9        1.5    1013.11        1.0      -0.01      0.357       0.06       0.14     -0.194        2.9       -0.3       2.60       0.40       2.60      0.000       3.20
13:00             223          0          2         97        1.9     612.20        1.9        1.5    1013.05        0.8       0.05      0.278       0.10       0.17     -0.230        2.9       -0.3       2.60       0.20       2.60      0.000       3.20
13:15             223          0          2         97        1.8     612.40        1.8        1.4    1012.84        0.6      -0.09      0.406      -0.05       0.00     -0.369        2.9       -0.3       2.80       0.40       2.80      0.000       3.40
13:30             223          0          2         97        1.9     612.40        1.9        1.5    1012.67        0.5       0.06      0.316       0.09       0.13     -0.431        2.9       -0.3       2.80       0.40       2.80      0.000       3.40
13:45              19          2          3         98        2.2     612.40        2.2        1.9    1012.27        1.3       0.30      0.246       0.33       0.48     -0.689        2.9       -0.3       2.80       0.20       2.80      0.000       3.40
14:00              19          2          3         98        2.6     612.40        2.6        2.3    1012.06        1.0       0.54      0.192       0.57       0.68     -0.705        2.9       -0.3       2.80       0.20       2.80      0.000       3.40
14:15              44          0          3         98        3.1     612.60        3.1        2.8    1012.00        0.8       0.86      0.308       0.89       0.97     -0.612        3.1       -0.3       3.00       0.40       3.00      0.000       3.60
14:30              44          0          2         98        2.9     612.60        2.9        2.7    1011.76        0.6       0.57      0.240       0.59       0.65     -0.694        3.1       -0.3       3.00       0.20       3.00      0.000       3.60
14:45              54          2          3         98        3.2     612.60        3.2        2.9    1011.52        0.5       0.67      0.187       0.69       0.73     -0.746        3.2       -0.3       3.00       0.20       3.00      0.000       3.60
15:00              61          2          3         98        3.1     612.60        3.1        2.8    1011.42        0.4       0.47      0.146       0.49       0.52     -0.667        3.2       -0.3       3.00       0.20       3.00      0.000       3.60
15:15              42          0          5         98        3.4     612.60        3.4        3.2    1010.98        0.3       0.67      0.114       0.69       0.71     -0.898        3.5       -0.3       3.00       0.20       3.00      0.000       3.60
15:30              42          0          2         97        3.7     612.60        3.7        3.2    1011.01       -0.7       0.70      0.089       0.72       0.60     -0.666        3.7       -0.3       3.00       0.00       3.00      0.000       3.60
15:45              63          5          5         97        3.6     612.60        2.5        3.1    1010.85       -0.6       0.46      0.069      -0.54       0.38     -0.671        3.7       -0.3       3.00       0.00       3.00      0.000       3.60
16:00              71          0          5         95        3.6     612.60        3.6        2.9    1010.95       -2.1       0.39      0.054       0.42       0.08     -0.430        3.8       -0.3       3.00       0.00       3.00      0.000       3.60

 


 

 

 

Retour accueil